sensor_id;sensor_type;location;lat;lon;timestamp;P1;durP1;ratioP1;P2;durP2;ratioP2
54897;SDS011;40800;52.704;6.398;2022-10-22T00:01:12;19.63;;;18.10;;
54897;SDS011;40800;52.704;6.398;2022-10-22T00:03:37;19.42;;;17.77;;
54897;SDS011;40800;52.704;6.398;2022-10-22T00:06:03;19.05;;;17.33;;
54897;SDS011;40800;52.704;6.398;2022-10-22T00:08:29;18.20;;;16.80;;
54897;SDS011;40800;52.704;6.398;2022-10-22T00:10:55;18.25;;;16.92;;
54897;SDS011;40800;52.704;6.398;2022-10-22T00:13:21;18.70;;;17.23;;
54897;SDS011;40800;52.704;6.398;2022-10-22T00:15:47;19.58;;;17.95;;
54897;SDS011;40800;52.704;6.398;2022-10-22T00:18:12;19.23;;;17.75;;
54897;SDS011;40800;52.704;6.398;2022-10-22T00:20:38;20.35;;;18.55;;
54897;SDS011;40800;52.704;6.398;2022-10-22T00:23:04;19.48;;;17.95;;
54897;SDS011;40800;52.704;6.398;2022-10-22T00:25:29;19.40;;;17.80;;
54897;SDS011;40800;52.704;6.398;2022-10-22T00:27:55;19.10;;;17.45;;
54897;SDS011;40800;52.704;6.398;2022-10-22T00:30:21;19.77;;;18.08;;
54897;SDS011;40800;52.704;6.398;2022-10-22T00:32:46;18.52;;;17.08;;
54897;SDS011;40800;52.704;6.398;2022-10-22T00:35:12;19.75;;;18.10;;
54897;SDS011;40800;52.704;6.398;2022-10-22T00:37:37;18.55;;;17.15;;
54897;SDS011;40800;52.704;6.398;2022-10-22T00:40:03;19.77;;;18.05;;
54897;SDS011;40800;52.704;6.398;2022-10-22T00:42:29;19.20;;;17.48;;
54897;SDS011;40800;52.704;6.398;2022-10-22T00:50:20;19.23;;;17.60;;
54897;SDS011;40800;52.704;6.398;2022-10-22T00:52:47;19.20;;;17.73;;
54897;SDS011;40800;52.704;6.398;2022-10-22T00:55:14;19.75;;;18.08;;
54897;SDS011;40800;52.704;6.398;2022-10-22T00:57:40;19.15;;;17.40;;
54897;SDS011;40800;52.704;6.398;2022-10-22T01:00:07;19.83;;;18.23;;
54897;SDS011;40800;52.704;6.398;2022-10-22T01:02:33;19.90;;;18.43;;
54897;SDS011;40800;52.704;6.398;2022-10-22T01:04:59;18.65;;;17.25;;
54897;SDS011;40800;52.704;6.398;2022-10-22T01:07:24;19.77;;;18.00;;
54897;SDS011;40800;52.704;6.398;2022-10-22T01:12:41;19.75;;;18.15;;
54897;SDS011;40800;52.704;6.398;2022-10-22T01:15:24;19.65;;;17.85;;
54897;SDS011;40800;52.704;6.398;2022-10-22T01:18:03;19.63;;;17.95;;
54897;SDS011;40800;52.704;6.398;2022-10-22T01:28:56;19.67;;;18.00;;
54897;SDS011;40800;52.704;6.398;2022-10-22T01:31:38;19.58;;;17.88;;
54897;SDS011;40800;52.704;6.398;2022-10-22T01:34:08;19.80;;;18.05;;
54897;SDS011;40800;52.704;6.398;2022-10-22T01:36:38;19.17;;;17.67;;
54897;SDS011;40800;52.704;6.398;2022-10-22T01:39:05;21.52;;;19.55;;
54897;SDS011;40800;52.704;6.398;2022-10-22T01:41:32;19.67;;;18.17;;
54897;SDS011;40800;52.704;6.398;2022-10-22T01:43:59;19.77;;;18.02;;
54897;SDS011;40800;52.704;6.398;2022-10-22T01:46:25;19.90;;;18.40;;
54897;SDS011;40800;52.704;6.398;2022-10-22T01:51:56;20.10;;;18.40;;
54897;SDS011;40800;52.704;6.398;2022-10-22T01:54:45;20.45;;;18.52;;
54897;SDS011;40800;52.704;6.398;2022-10-22T01:57:30;20.25;;;18.55;;
54897;SDS011;40800;52.704;6.398;2022-10-22T02:00:07;20.00;;;18.40;;
54897;SDS011;40800;52.704;6.398;2022-10-22T02:08:16;18.92;;;17.42;;
54897;SDS011;40800;52.704;6.398;2022-10-22T02:10:45;21.08;;;18.95;;
54897;SDS011;40800;52.704;6.398;2022-10-22T02:13:14;20.63;;;18.83;;
54897;SDS011;40800;52.704;6.398;2022-10-22T02:15:44;20.70;;;18.67;;
54897;SDS011;40800;52.704;6.398;2022-10-22T02:18:10;19.85;;;18.15;;
54897;SDS011;40800;52.704;6.398;2022-10-22T02:20:37;20.55;;;18.67;;
54897;SDS011;40800;52.704;6.398;2022-10-22T02:23:06;18.92;;;17.23;;
54897;SDS011;40800;52.704;6.398;2022-10-22T02:25:34;19.65;;;17.85;;
54897;SDS011;40800;52.704;6.398;2022-10-22T02:28:16;20.10;;;18.40;;
54897;SDS011;40800;52.704;6.398;2022-10-22T02:30:45;20.15;;;18.55;;
54897;SDS011;40800;52.704;6.398;2022-10-22T02:33:19;20.40;;;18.48;;
54897;SDS011;40800;52.704;6.398;2022-10-22T02:35:46;20.13;;;18.27;;
54897;SDS011;40800;52.704;6.398;2022-10-22T02:38:15;19.42;;;17.65;;
54897;SDS011;40800;52.704;6.398;2022-10-22T02:40:42;19.63;;;17.98;;
54897;SDS011;40800;52.704;6.398;2022-10-22T02:43:07;19.80;;;17.92;;
54897;SDS011;40800;52.704;6.398;2022-10-22T02:45:33;19.05;;;17.50;;
54897;SDS011;40800;52.704;6.398;2022-10-22T02:47:59;19.27;;;17.73;;
54897;SDS011;40800;52.704;6.398;2022-10-22T02:50:25;18.95;;;17.42;;
54897;SDS011;40800;52.704;6.398;2022-10-22T02:52:51;19.10;;;17.60;;
54897;SDS011;40800;52.704;6.398;2022-10-22T02:55:16;18.52;;;17.15;;
54897;SDS011;40800;52.704;6.398;2022-10-22T02:57:42;19.48;;;17.65;;
54897;SDS011;40800;52.704;6.398;2022-10-22T03:00:08;18.50;;;16.90;;
54897;SDS011;40800;52.704;6.398;2022-10-22T03:02:35;18.15;;;16.75;;
54897;SDS011;40800;52.704;6.398;2022-10-22T03:05:00;18.83;;;17.23;;
54897;SDS011;40800;52.704;6.398;2022-10-22T03:07:26;18.20;;;16.80;;
54897;SDS011;40800;52.704;6.398;2022-10-22T03:09:51;19.05;;;17.55;;
54897;SDS011;40800;52.704;6.398;2022-10-22T03:12:17;19.65;;;17.80;;
54897;SDS011;40800;52.704;6.398;2022-10-22T03:14:42;19.48;;;17.48;;
54897;SDS011;40800;52.704;6.398;2022-10-22T03:17:08;19.45;;;17.70;;
54897;SDS011;40800;52.704;6.398;2022-10-22T03:19:34;20.65;;;18.67;;
54897;SDS011;40800;52.704;6.398;2022-10-22T03:22:00;19.70;;;18.08;;
54897;SDS011;40800;52.704;6.398;2022-10-22T03:24:29;21.98;;;19.77;;
54897;SDS011;40800;52.704;6.398;2022-10-22T03:26:59;19.95;;;18.45;;
54897;SDS011;40800;52.704;6.398;2022-10-22T03:29:25;20.10;;;18.50;;
54897;SDS011;40800;52.704;6.398;2022-10-22T03:31:52;21.30;;;19.10;;
54897;SDS011;40800;52.704;6.398;2022-10-22T03:34:18;20.30;;;18.52;;
54897;SDS011;40800;52.704;6.398;2022-10-22T03:36:45;20.88;;;19.13;;
54897;SDS011;40800;52.704;6.398;2022-10-22T03:39:12;20.77;;;19.08;;
54897;SDS011;40800;52.704;6.398;2022-10-22T03:41:39;21.42;;;19.63;;
54897;SDS011;40800;52.704;6.398;2022-10-22T03:44:06;20.77;;;19.23;;
54897;SDS011;40800;52.704;6.398;2022-10-22T03:46:31;21.92;;;20.02;;
54897;SDS011;40800;52.704;6.398;2022-10-22T03:48:57;21.92;;;20.02;;
54897;SDS011;40800;52.704;6.398;2022-10-22T03:51:25;22.27;;;20.20;;
54897;SDS011;40800;52.704;6.398;2022-10-22T03:53:52;22.48;;;20.63;;
54897;SDS011;40800;52.704;6.398;2022-10-22T03:56:17;23.15;;;21.05;;
54897;SDS011;40800;52.704;6.398;2022-10-22T03:58:43;22.50;;;20.42;;
54897;SDS011;40800;52.704;6.398;2022-10-22T04:01:10;24.60;;;22.27;;
54897;SDS011;40800;52.704;6.398;2022-10-22T04:03:37;23.92;;;21.67;;
54897;SDS011;40800;52.704;6.398;2022-10-22T04:06:07;24.65;;;22.33;;
54897;SDS011;40800;52.704;6.398;2022-10-22T04:08:34;25.13;;;22.77;;
54897;SDS011;40800;52.704;6.398;2022-10-22T04:11:00;22.05;;;20.20;;
54897;SDS011;40800;52.704;6.398;2022-10-22T04:13:26;23.42;;;21.42;;
54897;SDS011;40800;52.704;6.398;2022-10-22T04:15:52;25.17;;;22.75;;
54897;SDS011;40800;52.704;6.398;2022-10-22T04:18:18;24.83;;;22.58;;
54897;SDS011;40800;52.704;6.398;2022-10-22T04:20:44;26.13;;;23.67;;
54897;SDS011;40800;52.704;6.398;2022-10-22T04:23:11;24.92;;;22.58;;
54897;SDS011;40800;52.704;6.398;2022-10-22T04:25:37;23.03;;;21.13;;
54897;SDS011;40800;52.704;6.398;2022-10-22T04:28:05;24.17;;;21.88;;
54897;SDS011;40800;52.704;6.398;2022-10-22T04:30:32;25.27;;;22.83;;
54897;SDS011;40800;52.704;6.398;2022-10-22T04:32:58;25.60;;;23.13;;
54897;SDS011;40800;52.704;6.398;2022-10-22T04:35:24;24.50;;;22.10;;
54897;SDS011;40800;52.704;6.398;2022-10-22T04:37:49;24.02;;;21.80;;
54897;SDS011;40800;52.704;6.398;2022-10-22T04:40:15;23.42;;;21.30;;
54897;SDS011;40800;52.704;6.398;2022-10-22T04:42:40;24.60;;;22.30;;
54897;SDS011;40800;52.704;6.398;2022-10-22T04:45:06;24.52;;;22.42;;
54897;SDS011;40800;52.704;6.398;2022-10-22T04:47:32;24.43;;;22.27;;
54897;SDS011;40800;52.704;6.398;2022-10-22T04:49:58;25.15;;;22.77;;
54897;SDS011;40800;52.704;6.398;2022-10-22T04:52:23;24.85;;;22.58;;
54897;SDS011;40800;52.704;6.398;2022-10-22T04:54:49;23.50;;;21.40;;
54897;SDS011;40800;52.704;6.398;2022-10-22T04:57:14;24.75;;;22.30;;
54897;SDS011;40800;52.704;6.398;2022-10-22T04:59:40;24.63;;;22.33;;
54897;SDS011;40800;52.704;6.398;2022-10-22T05:02:06;22.42;;;20.52;;
54897;SDS011;40800;52.704;6.398;2022-10-22T05:04:31;23.60;;;21.20;;
54897;SDS011;40800;52.704;6.398;2022-10-22T05:06:57;25.33;;;22.77;;
54897;SDS011;40800;52.704;6.398;2022-10-22T05:09:22;24.73;;;22.42;;
54897;SDS011;40800;52.704;6.398;2022-10-22T05:11:49;24.38;;;22.27;;
54897;SDS011;40800;52.704;6.398;2022-10-22T05:14:18;24.80;;;22.40;;
54897;SDS011;40800;52.704;6.398;2022-10-22T05:16:45;24.80;;;22.23;;
54897;SDS011;40800;52.704;6.398;2022-10-22T05:19:14;23.97;;;21.87;;
54897;SDS011;40800;52.704;6.398;2022-10-22T05:21:42;24.13;;;21.75;;
54897;SDS011;40800;52.704;6.398;2022-10-22T05:24:07;24.55;;;22.35;;
54897;SDS011;40800;52.704;6.398;2022-10-22T05:26:33;24.20;;;22.00;;
54897;SDS011;40800;52.704;6.398;2022-10-22T05:28:59;24.00;;;21.90;;
54897;SDS011;40800;52.704;6.398;2022-10-22T05:31:24;24.08;;;21.80;;
54897;SDS011;40800;52.704;6.398;2022-10-22T05:33:52;24.35;;;22.05;;
54897;SDS011;40800;52.704;6.398;2022-10-22T05:36:20;23.80;;;21.70;;
54897;SDS011;40800;52.704;6.398;2022-10-22T05:38:46;24.15;;;21.90;;
54897;SDS011;40800;52.704;6.398;2022-10-22T05:41:13;23.83;;;21.08;;
54897;SDS011;40800;52.704;6.398;2022-10-22T05:43:43;22.77;;;20.42;;
54897;SDS011;40800;52.704;6.398;2022-10-22T05:46:10;23.20;;;21.02;;
54897;SDS011;40800;52.704;6.398;2022-10-22T05:48:38;28.67;;;21.25;;
54897;SDS011;40800;52.704;6.398;2022-10-22T05:51:08;24.57;;;21.37;;
54897;SDS011;40800;52.704;6.398;2022-10-22T05:53:38;23.67;;;21.20;;
54897;SDS011;40800;52.704;6.398;2022-10-22T05:56:06;23.08;;;20.98;;
54897;SDS011;40800;52.704;6.398;2022-10-22T05:58:33;21.60;;;19.60;;
54897;SDS011;40800;52.704;6.398;2022-10-22T06:01:03;22.42;;;20.10;;
54897;SDS011;40800;52.704;6.398;2022-10-22T06:03:30;22.92;;;20.83;;
54897;SDS011;40800;52.704;6.398;2022-10-22T06:05:58;22.15;;;19.95;;
54897;SDS011;40800;52.704;6.398;2022-10-22T06:08:25;21.92;;;19.90;;
54897;SDS011;40800;52.704;6.398;2022-10-22T06:10:51;22.50;;;20.48;;
54897;SDS011;40800;52.704;6.398;2022-10-22T06:13:16;21.45;;;19.33;;
54897;SDS011;40800;52.704;6.398;2022-10-22T06:15:42;22.00;;;19.73;;
54897;SDS011;40800;52.704;6.398;2022-10-22T06:18:08;21.92;;;19.73;;
54897;SDS011;40800;52.704;6.398;2022-10-22T06:20:33;22.38;;;20.38;;
54897;SDS011;40800;52.704;6.398;2022-10-22T06:22:59;22.23;;;19.80;;
54897;SDS011;40800;52.704;6.398;2022-10-22T06:25:25;21.85;;;19.70;;
54897;SDS011;40800;52.704;6.398;2022-10-22T06:27:50;22.05;;;19.98;;
54897;SDS011;40800;52.704;6.398;2022-10-22T06:30:16;21.48;;;19.42;;
54897;SDS011;40800;52.704;6.398;2022-10-22T06:32:42;22.33;;;20.27;;
54897;SDS011;40800;52.704;6.398;2022-10-22T06:35:08;21.98;;;19.73;;
54897;SDS011;40800;52.704;6.398;2022-10-22T06:37:33;23.50;;;20.42;;
54897;SDS011;40800;52.704;6.398;2022-10-22T06:39:59;21.98;;;20.02;;
54897;SDS011;40800;52.704;6.398;2022-10-22T06:42:25;21.63;;;19.73;;
54897;SDS011;40800;52.704;6.398;2022-10-22T06:47:17;21.40;;;19.50;;
54897;SDS011;40800;52.704;6.398;2022-10-22T06:49:43;22.17;;;20.20;;
54897;SDS011;40800;52.704;6.398;2022-10-22T06:52:08;22.75;;;20.55;;
54897;SDS011;40800;52.704;6.398;2022-10-22T06:54:34;21.20;;;19.40;;
54897;SDS011;40800;52.704;6.398;2022-10-22T06:57:00;21.67;;;19.63;;
54897;SDS011;40800;52.704;6.398;2022-10-22T06:59:25;21.77;;;19.77;;
54897;SDS011;40800;52.704;6.398;2022-10-22T07:01:51;21.40;;;19.60;;
54897;SDS011;40800;52.704;6.398;2022-10-22T07:04:16;21.42;;;19.35;;
54897;SDS011;40800;52.704;6.398;2022-10-22T07:06:42;22.23;;;20.00;;
54897;SDS011;40800;52.704;6.398;2022-10-22T07:09:08;21.77;;;19.80;;
54897;SDS011;40800;52.704;6.398;2022-10-22T07:11:43;21.00;;;19.13;;
54897;SDS011;40800;52.704;6.398;2022-10-22T07:14:10;20.30;;;18.38;;
54897;SDS011;40800;52.704;6.398;2022-10-22T07:16:36;21.45;;;18.77;;
54897;SDS011;40800;52.704;6.398;2022-10-22T07:19:02;21.13;;;19.10;;
54897;SDS011;40800;52.704;6.398;2022-10-22T07:21:29;21.02;;;19.20;;
54897;SDS011;40800;52.704;6.398;2022-10-22T07:23:55;22.40;;;19.90;;
54897;SDS011;40800;52.704;6.398;2022-10-22T07:26:22;20.58;;;18.58;;
54897;SDS011;40800;52.704;6.398;2022-10-22T07:28:49;20.83;;;18.83;;
54897;SDS011;40800;52.704;6.398;2022-10-22T07:31:15;20.90;;;19.00;;
54897;SDS011;40800;52.704;6.398;2022-10-22T07:33:42;20.77;;;18.80;;
54897;SDS011;40800;52.704;6.398;2022-10-22T07:36:10;19.92;;;17.95;;
54897;SDS011;40800;52.704;6.398;2022-10-22T07:38:41;21.60;;;19.27;;
54897;SDS011;40800;52.704;6.398;2022-10-22T07:41:11;20.10;;;18.23;;
54897;SDS011;40800;52.704;6.398;2022-10-22T07:43:37;20.83;;;18.73;;
54897;SDS011;40800;52.704;6.398;2022-10-22T07:46:02;20.23;;;18.35;;
54897;SDS011;40800;52.704;6.398;2022-10-22T07:48:28;23.00;;;19.15;;
54897;SDS011;40800;52.704;6.398;2022-10-22T07:50:54;20.70;;;18.73;;
54897;SDS011;40800;52.704;6.398;2022-10-22T07:53:20;20.80;;;18.83;;
54897;SDS011;40800;52.704;6.398;2022-10-22T07:55:46;20.17;;;18.08;;
54897;SDS011;40800;52.704;6.398;2022-10-22T07:58:13;19.30;;;17.60;;
54897;SDS011;40800;52.704;6.398;2022-10-22T08:00:38;20.38;;;18.52;;
54897;SDS011;40800;52.704;6.398;2022-10-22T08:03:04;19.63;;;17.80;;
54897;SDS011;40800;52.704;6.398;2022-10-22T08:05:30;21.88;;;18.73;;
54897;SDS011;40800;52.704;6.398;2022-10-22T08:07:55;20.08;;;18.05;;
54897;SDS011;40800;52.704;6.398;2022-10-22T08:10:21;19.48;;;17.63;;
54897;SDS011;40800;52.704;6.398;2022-10-22T08:12:46;20.05;;;18.00;;
54897;SDS011;40800;52.704;6.398;2022-10-22T08:15:12;21.55;;;17.65;;
54897;SDS011;40800;52.704;6.398;2022-10-22T08:17:38;20.02;;;18.02;;
54897;SDS011;40800;52.704;6.398;2022-10-22T08:20:03;19.10;;;17.17;;
54897;SDS011;40800;52.704;6.398;2022-10-22T08:22:29;19.65;;;17.65;;
54897;SDS011;40800;52.704;6.398;2022-10-22T08:24:55;19.67;;;17.55;;
54897;SDS011;40800;52.704;6.398;2022-10-22T08:27:21;20.55;;;17.48;;
54897;SDS011;40800;52.704;6.398;2022-10-22T08:29:46;19.58;;;17.27;;
54897;SDS011;40800;52.704;6.398;2022-10-22T08:32:12;18.60;;;16.27;;
54897;SDS011;40800;52.704;6.398;2022-10-22T08:34:38;18.60;;;16.80;;
54897;SDS011;40800;52.704;6.398;2022-10-22T08:37:04;19.48;;;17.20;;
54897;SDS011;40800;52.704;6.398;2022-10-22T08:39:32;18.67;;;16.80;;
54897;SDS011;40800;52.704;6.398;2022-10-22T08:42:20;23.75;;;16.40;;
54897;SDS011;40800;52.704;6.398;2022-10-22T08:47:43;17.60;;;15.50;;
54897;SDS011;40800;52.704;6.398;2022-10-22T08:50:38;16.83;;;15.23;;
54897;SDS011;40800;52.704;6.398;2022-10-22T08:53:15;18.42;;;15.45;;
54897;SDS011;40800;52.704;6.398;2022-10-22T08:55:43;17.63;;;15.70;;
54897;SDS011;40800;52.704;6.398;2022-10-22T08:58:17;17.42;;;15.63;;
54897;SDS011;40800;52.704;6.398;2022-10-22T09:06:12;16.67;;;14.98;;
54897;SDS011;40800;52.704;6.398;2022-10-22T09:08:47;16.88;;;14.77;;
54897;SDS011;40800;52.704;6.398;2022-10-22T09:13:45;16.40;;;14.80;;
54897;SDS011;40800;52.704;6.398;2022-10-22T09:16:19;16.67;;;14.70;;
54897;SDS011;40800;52.704;6.398;2022-10-22T09:24:46;17.40;;;14.73;;
54897;SDS011;40800;52.704;6.398;2022-10-22T09:27:27;16.17;;;14.40;;
54897;SDS011;40800;52.704;6.398;2022-10-22T09:29:55;16.45;;;14.45;;
54897;SDS011;40800;52.704;6.398;2022-10-22T09:32:21;16.45;;;14.85;;
54897;SDS011;40800;52.704;6.398;2022-10-22T09:34:47;16.88;;;15.10;;
54897;SDS011;40800;52.704;6.398;2022-10-22T09:37:15;19.98;;;14.80;;
54897;SDS011;40800;52.704;6.398;2022-10-22T09:39:44;19.02;;;14.60;;
54897;SDS011;40800;52.704;6.398;2022-10-22T09:42:14;15.88;;;14.50;;
54897;SDS011;40800;52.704;6.398;2022-10-22T09:44:41;15.70;;;14.10;;
54897;SDS011;40800;52.704;6.398;2022-10-22T09:47:24;16.02;;;14.40;;
54897;SDS011;40800;52.704;6.398;2022-10-22T09:52:57;18.00;;;14.60;;
54897;SDS011;40800;52.704;6.398;2022-10-22T09:55:42;16.48;;;14.88;;
54897;SDS011;40800;52.704;6.398;2022-10-22T09:58:11;15.95;;;14.45;;
54897;SDS011;40800;52.704;6.398;2022-10-22T10:00:39;16.20;;;14.32;;
54897;SDS011;40800;52.704;6.398;2022-10-22T10:03:11;18.75;;;14.98;;
54897;SDS011;40800;52.704;6.398;2022-10-22T10:05:45;15.57;;;14.10;;
54897;SDS011;40800;52.704;6.398;2022-10-22T10:08:13;16.83;;;15.02;;
54897;SDS011;40800;52.704;6.398;2022-10-22T10:16:43;16.75;;;15.20;;
54897;SDS011;40800;52.704;6.398;2022-10-22T10:22:00;15.88;;;14.45;;
54897;SDS011;40800;52.704;6.398;2022-10-22T10:24:40;16.10;;;14.60;;
54897;SDS011;40800;52.704;6.398;2022-10-22T10:27:40;16.98;;;15.23;;
54897;SDS011;40800;52.704;6.398;2022-10-22T10:30:13;17.60;;;15.43;;
54897;SDS011;40800;52.704;6.398;2022-10-22T10:35:28;18.35;;;15.75;;
54897;SDS011;40800;52.704;6.398;2022-10-22T10:43:44;17.90;;;16.25;;
54897;SDS011;40800;52.704;6.398;2022-10-22T10:52:00;18.88;;;16.42;;
54897;SDS011;40800;52.704;6.398;2022-10-22T10:57:48;17.48;;;15.52;;
54897;SDS011;40800;52.704;6.398;2022-10-22T11:00:21;24.77;;;17.10;;
54897;SDS011;40800;52.704;6.398;2022-10-22T11:08:34;19.13;;;17.13;;
54897;SDS011;40800;52.704;6.398;2022-10-22T11:16:24;19.20;;;17.40;;
54897;SDS011;40800;52.704;6.398;2022-10-22T11:18:58;20.77;;;18.33;;
54897;SDS011;40800;52.704;6.398;2022-10-22T11:21:31;19.67;;;17.63;;
54897;SDS011;40800;52.704;6.398;2022-10-22T11:26:50;18.88;;;16.85;;
54897;SDS011;40800;52.704;6.398;2022-10-22T11:29:22;20.55;;;17.30;;
54897;SDS011;40800;52.704;6.398;2022-10-22T11:31:51;18.83;;;17.10;;
54897;SDS011;40800;52.704;6.398;2022-10-22T11:37:25;18.20;;;16.40;;
54897;SDS011;40800;52.704;6.398;2022-10-22T11:40:09;17.60;;;15.95;;
54897;SDS011;40800;52.704;6.398;2022-10-22T11:42:47;18.00;;;16.25;;
54897;SDS011;40800;52.704;6.398;2022-10-22T11:50:42;16.88;;;15.45;;
54897;SDS011;40800;52.704;6.398;2022-10-22T11:58:48;15.98;;;14.45;;
54897;SDS011;40800;52.704;6.398;2022-10-22T12:06:53;15.20;;;13.90;;
54897;SDS011;40800;52.704;6.398;2022-10-22T12:09:21;14.93;;;13.40;;
54897;SDS011;40800;52.704;6.398;2022-10-22T12:11:50;15.23;;;13.68;;
54897;SDS011;40800;52.704;6.398;2022-10-22T12:14:25;16.08;;;14.45;;
54897;SDS011;40800;52.704;6.398;2022-10-22T12:19:29;15.45;;;13.85;;
54897;SDS011;40800;52.704;6.398;2022-10-22T12:22:01;16.25;;;14.38;;
54897;SDS011;40800;52.704;6.398;2022-10-22T12:24:51;15.38;;;13.82;;
54897;SDS011;40800;52.704;6.398;2022-10-22T12:29:45;14.70;;;13.15;;
54897;SDS011;40800;52.704;6.398;2022-10-22T12:32:14;14.43;;;13.13;;
54897;SDS011;40800;52.704;6.398;2022-10-22T12:34:47;14.32;;;13.05;;
54897;SDS011;40800;52.704;6.398;2022-10-22T12:37:15;14.00;;;12.80;;
54897;SDS011;40800;52.704;6.398;2022-10-22T12:39:41;14.65;;;13.15;;
54897;SDS011;40800;52.704;6.398;2022-10-22T12:42:12;14.32;;;12.93;;
54897;SDS011;40800;52.704;6.398;2022-10-22T12:44:39;16.77;;;13.70;;
54897;SDS011;40800;52.704;6.398;2022-10-22T12:47:05;15.20;;;13.60;;
54897;SDS011;40800;52.704;6.398;2022-10-22T12:49:38;18.95;;;13.88;;
54897;SDS011;40800;52.704;6.398;2022-10-22T12:52:06;17.00;;;13.52;;
54897;SDS011;40800;52.704;6.398;2022-10-22T12:54:37;15.93;;;13.65;;
54897;SDS011;40800;52.704;6.398;2022-10-22T12:57:03;17.27;;;13.70;;
54897;SDS011;40800;52.704;6.398;2022-10-22T12:59:33;14.43;;;13.00;;
54897;SDS011;40800;52.704;6.398;2022-10-22T13:02:03;14.32;;;12.90;;
54897;SDS011;40800;52.704;6.398;2022-10-22T13:08:00;13.40;;;12.15;;
54897;SDS011;40800;52.704;6.398;2022-10-22T13:10:35;13.00;;;11.70;;
54897;SDS011;40800;52.704;6.398;2022-10-22T13:13:02;13.02;;;11.50;;
54897;SDS011;40800;52.704;6.398;2022-10-22T13:18:03;13.00;;;11.73;;
54897;SDS011;40800;52.704;6.398;2022-10-22T13:23:20;12.45;;;11.20;;
54897;SDS011;40800;52.704;6.398;2022-10-22T13:28:36;13.30;;;11.35;;
54897;SDS011;40800;52.704;6.398;2022-10-22T13:31:09;12.73;;;11.40;;
54897;SDS011;40800;52.704;6.398;2022-10-22T13:33:41;12.30;;;10.88;;
54897;SDS011;40800;52.704;6.398;2022-10-22T13:36:13;13.48;;;10.80;;
54897;SDS011;40800;52.704;6.398;2022-10-22T13:38:40;11.27;;;10.20;;
54897;SDS011;40800;52.704;6.398;2022-10-22T13:43:47;11.15;;;10.05;;
54897;SDS011;40800;52.704;6.398;2022-10-22T13:46:13;10.95;;;9.85;;
54897;SDS011;40800;52.704;6.398;2022-10-22T13:48:39;10.67;;;9.77;;
54897;SDS011;40800;52.704;6.398;2022-10-22T13:51:15;10.68;;;9.70;;
54897;SDS011;40800;52.704;6.398;2022-10-22T13:53:43;12.90;;;9.50;;
54897;SDS011;40800;52.704;6.398;2022-10-22T13:56:14;12.10;;;9.73;;
54897;SDS011;40800;52.704;6.398;2022-10-22T13:58:41;9.52;;;7.93;;
54897;SDS011;40800;52.704;6.398;2022-10-22T14:03:46;9.00;;;8.10;;
54897;SDS011;40800;52.704;6.398;2022-10-22T14:06:15;11.38;;;7.90;;
54897;SDS011;40800;52.704;6.398;2022-10-22T14:08:42;9.98;;;8.38;;
54897;SDS011;40800;52.704;6.398;2022-10-22T14:11:11;10.45;;;8.68;;
54897;SDS011;40800;52.704;6.398;2022-10-22T14:13:37;14.95;;;9.85;;
54897;SDS011;40800;52.704;6.398;2022-10-22T14:16:03;11.18;;;9.57;;
54897;SDS011;40800;52.704;6.398;2022-10-22T14:18:30;11.00;;;9.82;;
54897;SDS011;40800;52.704;6.398;2022-10-22T14:21:00;11.80;;;10.00;;
54897;SDS011;40800;52.704;6.398;2022-10-22T14:23:29;11.52;;;10.32;;
54897;SDS011;40800;52.704;6.398;2022-10-22T14:25:56;10.68;;;9.57;;
54897;SDS011;40800;52.704;6.398;2022-10-22T14:28:22;10.75;;;8.85;;
54897;SDS011;40800;52.704;6.398;2022-10-22T14:30:49;10.70;;;8.77;;
54897;SDS011;40800;52.704;6.398;2022-10-22T14:36:13;13.00;;;8.40;;
54897;SDS011;40800;52.704;6.398;2022-10-22T14:38:41;14.25;;;7.60;;
54897;SDS011;40800;52.704;6.398;2022-10-22T14:43:46;11.10;;;6.55;;
54897;SDS011;40800;52.704;6.398;2022-10-22T14:46:12;11.65;;;6.82;;
54897;SDS011;40800;52.704;6.398;2022-10-22T14:48:39;13.35;;;7.00;;
54897;SDS011;40800;52.704;6.398;2022-10-22T14:51:05;11.77;;;6.60;;
54897;SDS011;40800;52.704;6.398;2022-10-22T14:53:31;11.10;;;5.95;;
54897;SDS011;40800;52.704;6.398;2022-10-22T14:55:57;13.20;;;6.93;;
54897;SDS011;40800;52.704;6.398;2022-10-22T14:58:24;11.40;;;6.90;;
54897;SDS011;40800;52.704;6.398;2022-10-22T15:00:50;13.77;;;6.60;;
54897;SDS011;40800;52.704;6.398;2022-10-22T15:03:16;14.00;;;7.35;;
54897;SDS011;40800;52.704;6.398;2022-10-22T15:05:42;14.05;;;6.20;;
54897;SDS011;40800;52.704;6.398;2022-10-22T15:08:11;12.15;;;6.45;;
54897;SDS011;40800;52.704;6.398;2022-10-22T15:10:38;14.65;;;6.88;;
54897;SDS011;40800;52.704;6.398;2022-10-22T15:13:04;13.90;;;6.33;;
54897;SDS011;40800;52.704;6.398;2022-10-22T15:15:29;11.98;;;7.07;;
54897;SDS011;40800;52.704;6.398;2022-10-22T15:17:55;12.18;;;7.00;;
54897;SDS011;40800;52.704;6.398;2022-10-22T15:20:21;13.63;;;7.13;;
54897;SDS011;40800;52.704;6.398;2022-10-22T15:22:46;9.82;;;7.10;;
54897;SDS011;40800;52.704;6.398;2022-10-22T15:25:12;11.07;;;6.68;;
54897;SDS011;40800;52.704;6.398;2022-10-22T15:27:38;11.80;;;6.70;;
54897;SDS011;40800;52.704;6.398;2022-10-22T15:30:04;10.30;;;6.47;;
54897;SDS011;40800;52.704;6.398;2022-10-22T15:32:31;12.60;;;6.53;;
54897;SDS011;40800;52.704;6.398;2022-10-22T15:34:58;9.25;;;6.60;;
54897;SDS011;40800;52.704;6.398;2022-10-22T15:39:50;12.60;;;7.22;;
54897;SDS011;40800;52.704;6.398;2022-10-22T15:42:16;18.02;;;7.60;;
54897;SDS011;40800;52.704;6.398;2022-10-22T15:44:43;11.55;;;6.80;;
54897;SDS011;40800;52.704;6.398;2022-10-22T15:47:09;11.87;;;7.47;;
54897;SDS011;40800;52.704;6.398;2022-10-22T15:49:36;15.88;;;7.15;;
54897;SDS011;40800;52.704;6.398;2022-10-22T15:52:03;11.18;;;7.63;;
54897;SDS011;40800;52.704;6.398;2022-10-22T15:54:30;14.65;;;7.10;;
54897;SDS011;40800;52.704;6.398;2022-10-22T15:56:56;13.57;;;7.57;;
54897;SDS011;40800;52.704;6.398;2022-10-22T15:59:23;10.82;;;7.00;;
54897;SDS011;40800;52.704;6.398;2022-10-22T16:01:49;14.43;;;7.35;;
54897;SDS011;40800;52.704;6.398;2022-10-22T16:04:15;33.33;;;9.30;;
54897;SDS011;40800;52.704;6.398;2022-10-22T16:06:42;18.98;;;8.07;;
54897;SDS011;40800;52.704;6.398;2022-10-22T16:09:19;17.40;;;7.60;;
54897;SDS011;40800;52.704;6.398;2022-10-22T16:11:47;16.48;;;7.80;;
54897;SDS011;40800;52.704;6.398;2022-10-22T16:14:13;12.20;;;7.78;;
54897;SDS011;40800;52.704;6.398;2022-10-22T16:16:41;11.50;;;7.43;;
54897;SDS011;40800;52.704;6.398;2022-10-22T16:19:09;14.93;;;8.00;;
54897;SDS011;40800;52.704;6.398;2022-10-22T16:21:36;16.33;;;7.68;;
54897;SDS011;40800;52.704;6.398;2022-10-22T16:24:02;14.02;;;7.30;;
54897;SDS011;40800;52.704;6.398;2022-10-22T16:26:28;13.13;;;7.50;;
54897;SDS011;40800;52.704;6.398;2022-10-22T16:28:53;14.35;;;8.25;;
54897;SDS011;40800;52.704;6.398;2022-10-22T16:31:19;15.40;;;7.63;;
54897;SDS011;40800;52.704;6.398;2022-10-22T16:33:45;12.55;;;7.82;;
54897;SDS011;40800;52.704;6.398;2022-10-22T16:36:11;12.32;;;7.82;;
54897;SDS011;40800;52.704;6.398;2022-10-22T16:38:38;16.17;;;8.40;;
54897;SDS011;40800;52.704;6.398;2022-10-22T16:41:05;13.95;;;8.38;;
54897;SDS011;40800;52.704;6.398;2022-10-22T16:43:34;14.85;;;9.07;;
54897;SDS011;40800;52.704;6.398;2022-10-22T16:46:00;15.73;;;10.10;;